createdAt,value
2018-11-01T00:01:23.923Z,8.00
2018-11-01T00:03:56.240Z,8.30
2018-11-01T00:06:28.872Z,8.70
2018-11-01T00:09:00.141Z,8.60
2018-11-01T00:11:33.044Z,7.60
2018-11-01T00:14:05.063Z,7.83
2018-11-01T00:16:36.174Z,6.83
2018-11-01T00:19:08.509Z,6.23
2018-11-01T00:21:41.370Z,7.67
2018-11-01T00:24:15.599Z,8.30
2018-11-01T00:26:47.627Z,9.77
2018-11-01T00:29:19.585Z,7.90
2018-11-01T00:31:51.056Z,7.47
2018-11-01T00:34:22.846Z,7.47
2018-11-01T00:36:53.918Z,7.97
2018-11-01T00:39:24.927Z,7.30
2018-11-01T00:41:57.157Z,6.63
2018-11-01T00:44:30.538Z,7.13
2018-11-01T00:47:02.391Z,7.60
2018-11-01T00:49:33.805Z,6.60
2018-11-01T00:52:05.422Z,5.23
2018-11-01T00:54:37.525Z,5.93
2018-11-01T00:57:09.191Z,4.93
2018-11-01T00:59:40.687Z,4.73
2018-11-01T01:02:12.319Z,4.30
2018-11-01T01:04:44.779Z,5.50
2018-11-01T01:07:15.924Z,4.43
2018-11-01T01:09:46.923Z,4.50
2018-11-01T01:12:18.080Z,4.97
2018-11-01T01:14:49.859Z,4.00
2018-11-01T01:17:21.714Z,4.33
2018-11-01T01:19:53.238Z,4.80
2018-11-01T01:22:25.089Z,3.80
2018-11-01T01:24:56.963Z,3.70
2018-11-01T01:27:28.808Z,4.07
2018-11-01T01:30:00.957Z,4.13
2018-11-01T01:32:32.136Z,3.60
2018-11-01T01:35:03.606Z,5.43
2018-11-01T01:37:34.862Z,3.70
2018-11-01T01:40:07.012Z,4.00
2018-11-01T01:42:39.843Z,3.30
2018-11-01T01:45:12.072Z,3.60
2018-11-01T01:47:43.714Z,3.17
2018-11-01T01:50:16.599Z,5.80
2018-11-01T01:52:48.325Z,3.70
2018-11-01T01:55:20.080Z,3.30
2018-11-01T01:57:51.297Z,5.23
2018-11-01T02:00:23.035Z,3.40
2018-11-01T02:02:54.922Z,3.70
2018-11-01T02:05:26.425Z,3.30
2018-11-01T02:07:57.960Z,4.10
2018-11-01T02:10:29.592Z,3.10
2018-11-01T02:13:01.036Z,3.87
2018-11-01T02:15:33.016Z,5.17
2018-11-01T02:18:04.180Z,4.40
2018-11-01T02:20:35.572Z,4.10
2018-11-01T02:23:07.849Z,4.30
2018-11-01T02:25:39.263Z,3.80
2018-11-01T02:28:18.285Z,3.93
2018-11-01T02:30:49.636Z,3.50
2018-11-01T02:33:20.622Z,3.90
2018-11-01T02:35:51.882Z,3.47
2018-11-01T02:38:23.486Z,3.53
2018-11-01T02:40:54.780Z,4.33
2018-11-01T02:43:25.907Z,3.20
2018-11-01T02:46:02.045Z,3.10
2018-11-01T02:48:33.136Z,3.53
2018-11-01T02:51:04.411Z,3.67
2018-11-01T02:53:35.362Z,3.43
2018-11-01T02:56:06.930Z,3.63
2018-11-01T02:58:38.352Z,7.30
2018-11-01T03:01:10.791Z,4.00
2018-11-01T03:03:48.709Z,3.27
2018-11-01T03:06:20.648Z,3.30
2018-11-01T03:08:51.938Z,3.93
2018-11-01T03:11:23.795Z,3.70
2018-11-01T03:13:55.613Z,3.50
2018-11-01T03:16:27.126Z,3.10
2018-11-01T03:18:59.013Z,4.10
2018-11-01T03:21:30.815Z,4.30
2018-11-01T03:24:01.929Z,4.07
2018-11-01T03:26:33.456Z,5.20
2018-11-01T03:29:06.397Z,3.40
2018-11-01T03:31:37.339Z,3.10
2018-11-01T03:34:08.894Z,3.40
2018-11-01T03:36:40.102Z,3.90
2018-11-01T03:39:13.566Z,3.20
2018-11-01T03:41:45.071Z,3.60
2018-11-01T03:44:16.550Z,3.00
2018-11-01T03:46:48.123Z,3.10
2018-11-01T03:49:19.316Z,3.30
2018-11-01T03:51:51.137Z,3.30
2018-11-01T03:54:22.377Z,2.53
2018-11-01T03:56:53.821Z,3.03
2018-11-01T03:59:25.308Z,3.57
2018-11-01T04:01:57.394Z,4.50
2018-11-01T04:04:29.589Z,3.27
2018-11-01T04:07:01.338Z,3.57
2018-11-01T04:09:32.683Z,3.03
2018-11-01T04:12:04.223Z,3.00
2018-11-01T04:14:36.369Z,4.80
2018-11-01T04:17:08.242Z,3.30
2018-11-01T04:19:39.672Z,3.00
2018-11-01T04:22:11.423Z,2.90
2018-11-01T04:24:42.613Z,4.20
2018-11-01T04:27:14.589Z,5.10
2018-11-01T04:29:46.173Z,3.47
2018-11-01T04:32:18.079Z,2.90
2018-11-01T04:34:49.533Z,3.30
2018-11-01T04:37:20.986Z,3.60
2018-11-01T04:39:52.351Z,3.00
2018-11-01T04:42:23.579Z,2.73
2018-11-01T04:44:54.678Z,2.70
2018-11-01T04:47:26.075Z,2.67
2018-11-01T04:49:57.511Z,4.20
2018-11-01T04:52:29.323Z,2.93
2018-11-01T04:55:00.605Z,3.37
2018-11-01T04:57:31.751Z,2.70
2018-11-01T05:00:04.319Z,3.00
2018-11-01T05:02:36.098Z,2.50
2018-11-01T05:05:08.052Z,2.63
2018-11-01T05:07:40.541Z,3.27
2018-11-01T05:10:27.989Z,2.60
2018-11-01T05:12:59.584Z,3.37
2018-11-01T05:15:35.515Z,3.27
2018-11-01T05:18:07.357Z,3.03
2018-11-01T05:20:39.462Z,3.77
2018-11-01T05:23:11.658Z,3.00
2018-11-01T05:25:43.143Z,3.40
2018-11-01T05:28:14.633Z,2.97
2018-11-01T05:30:45.747Z,3.40
2018-11-01T05:33:17.903Z,3.00
2018-11-01T05:35:49.550Z,2.90
2018-11-01T05:38:21.749Z,3.10
2018-11-01T05:40:53.410Z,3.37
2018-11-01T05:43:28.171Z,4.47
2018-11-01T05:46:00.337Z,4.67
2018-11-01T05:48:32.224Z,4.43
2018-11-01T05:51:03.501Z,3.80
2018-11-01T05:53:35.345Z,3.80
2018-11-01T05:56:06.764Z,3.90
2018-11-01T05:58:38.170Z,4.50
2018-11-01T06:01:12.696Z,3.87
2018-11-01T06:03:44.146Z,6.50
2018-11-01T06:06:15.892Z,3.80
2018-11-01T06:08:48.058Z,3.97
2018-11-01T06:11:19.834Z,5.43
2018-11-01T06:13:51.020Z,3.63
2018-11-01T06:16:22.214Z,3.87
2018-11-01T06:18:53.290Z,3.97
2018-11-01T06:21:24.842Z,3.07
2018-11-01T06:23:56.199Z,3.20
2018-11-01T06:26:28.562Z,3.00
2018-11-01T06:29:00.108Z,2.83
2018-11-01T06:31:31.943Z,3.40
2018-11-01T06:34:03.339Z,3.10
2018-11-01T06:36:34.805Z,3.50
2018-11-01T06:39:07.750Z,3.70
2018-11-01T06:41:40.083Z,3.63
2018-11-01T06:44:11.618Z,3.83
2018-11-01T06:46:43.148Z,2.97
2018-11-01T06:49:15.281Z,3.13
2018-11-01T06:51:46.486Z,3.10
2018-11-01T06:54:17.698Z,3.30
2018-11-01T06:56:49.159Z,3.50
2018-11-01T06:59:21.652Z,3.37
2018-11-01T07:01:52.929Z,4.60
2018-11-01T07:04:24.388Z,3.67
2018-11-01T07:06:55.575Z,5.47
2018-11-01T07:09:26.967Z,3.83
2018-11-01T07:11:58.457Z,3.53
2018-11-01T07:14:29.652Z,4.23
2018-11-01T07:17:01.792Z,3.40
2018-11-01T07:19:33.367Z,3.80
2018-11-01T07:22:05.386Z,3.30
2018-11-01T07:24:37.176Z,3.73
2018-11-01T07:27:08.618Z,3.97
2018-11-01T07:29:40.995Z,5.07
2018-11-01T07:32:12.930Z,4.90
2018-11-01T07:34:47.273Z,3.43
2018-11-01T07:37:19.376Z,5.23
2018-11-01T07:39:50.655Z,4.90
2018-11-01T07:42:22.418Z,5.03
2018-11-01T07:44:54.726Z,9.37
2018-11-01T07:47:26.816Z,4.93
2018-11-01T07:49:58.474Z,4.90
2018-11-01T07:52:30.367Z,4.13
2018-11-01T07:55:02.718Z,5.90
2018-11-01T07:57:34.156Z,5.90
2018-11-01T08:00:09.269Z,9.13
2018-11-01T08:02:42.871Z,4.47
2018-11-01T08:05:17.229Z,4.40
2018-11-01T08:07:49.058Z,5.43
2018-11-01T08:10:20.968Z,6.53
2018-11-01T08:12:53.676Z,18.50
2018-11-01T08:15:24.822Z,25.60
2018-11-01T08:17:56.206Z,12.87
2018-11-01T08:20:27.275Z,9.10
2018-11-01T08:22:59.227Z,6.70
2018-11-01T08:25:30.317Z,29.27
2018-11-01T08:28:01.657Z,11.83
2018-11-01T08:30:33.649Z,9.30
2018-11-01T08:33:04.858Z,9.20
2018-11-01T08:35:37.690Z,14.63
2018-11-01T08:38:09.764Z,19.00
2018-11-01T08:40:40.830Z,10.47
2018-11-01T08:43:13.107Z,7.47
2018-11-01T08:45:45.121Z,7.50
2018-11-01T08:48:17.271Z,14.93
2018-11-01T08:50:49.269Z,10.10
2018-11-01T08:53:20.675Z,17.80
2018-11-01T08:55:52.252Z,16.77
2018-11-01T08:58:23.342Z,11.33
2018-11-01T09:00:54.775Z,9.67
2018-11-01T09:03:25.987Z,7.60
2018-11-01T09:05:57.157Z,9.03
2018-11-01T09:08:29.205Z,8.80
2018-11-01T09:11:01.310Z,8.60
2018-11-01T09:13:32.977Z,9.90
2018-11-01T09:16:04.573Z,14.47
2018-11-01T09:18:36.404Z,8.97
2018-11-01T09:21:09.809Z,11.50
2018-11-01T09:23:41.948Z,8.53
2018-11-01T09:26:12.985Z,8.10
2018-11-01T09:28:44.963Z,8.13
2018-11-01T09:31:16.510Z,7.90
2018-11-01T09:33:47.769Z,8.40
2018-11-01T09:36:19.228Z,11.13
2018-11-01T09:38:50.735Z,8.43
2018-11-01T09:41:22.775Z,11.87
2018-11-01T09:43:54.160Z,8.73
2018-11-01T09:51:51.463Z,18.80
2018-11-01T09:54:23.576Z,14.00
2018-11-01T09:56:54.766Z,10.13
2018-11-01T09:59:26.636Z,9.43
2018-11-01T11:30:57.764Z,7.20
2018-11-01T11:33:29.448Z,11.70
2018-11-01T11:36:00.868Z,10.30
2018-11-01T11:38:31.890Z,9.47
2018-11-01T11:41:04.812Z,11.57
2018-11-01T11:43:36.155Z,10.63
2018-11-01T11:46:08.060Z,13.23
2018-11-01T11:48:40.479Z,14.33
2018-11-01T11:51:11.654Z,8.67
2018-11-01T11:53:43.286Z,13.73
2018-11-01T11:56:14.420Z,9.57
2018-11-01T11:58:46.195Z,9.93
2018-11-01T12:01:17.320Z,10.60
2018-11-01T12:03:48.724Z,13.77
2018-11-01T12:06:20.632Z,11.47
2018-11-01T12:08:51.899Z,9.70
2018-11-01T12:11:23.052Z,9.60
2018-11-01T12:13:54.644Z,10.30
2018-11-01T12:16:26.887Z,9.57
2018-11-01T12:18:58.113Z,9.17
2018-11-01T12:21:29.657Z,8.73
2018-11-01T12:24:01.322Z,11.50
2018-11-01T12:26:32.979Z,15.43
2018-11-01T12:29:04.281Z,9.73
2018-11-01T12:31:37.198Z,9.37
2018-11-01T12:34:08.981Z,10.30
2018-11-01T12:36:40.962Z,18.07
2018-11-01T12:39:12.375Z,12.07
2018-11-01T12:41:44.438Z,11.63
2018-11-01T12:44:15.633Z,8.93
2018-11-01T12:46:46.934Z,9.83
2018-11-01T12:49:18.915Z,17.67
2018-11-01T12:51:50.760Z,12.13
2018-11-01T12:54:22.275Z,23.47
2018-11-01T12:56:53.648Z,25.77
2018-11-01T12:59:24.680Z,15.37
2018-11-01T13:01:56.533Z,21.70
2018-11-01T13:04:28.041Z,11.17
2018-11-01T13:06:59.798Z,19.30
2018-11-01T13:09:32.889Z,12.77
2018-11-01T13:12:04.501Z,13.50
2018-11-01T13:14:36.497Z,12.60
2018-11-01T13:17:08.280Z,10.50
2018-11-01T13:19:40.264Z,9.80
2018-11-01T13:22:11.976Z,10.30
2018-11-01T13:24:43.424Z,10.97
2018-11-01T13:27:17.391Z,12.70
2018-11-01T13:29:48.547Z,11.97
2018-11-01T13:32:19.727Z,8.50
2018-11-01T13:34:52.401Z,10.40
2018-11-01T13:37:25.194Z,9.93
2018-11-01T13:39:57.971Z,10.30
2018-11-01T13:42:31.157Z,11.07
2018-11-01T13:45:02.988Z,9.77
2018-11-01T13:47:34.967Z,11.13
2018-11-01T13:50:08.651Z,9.77
2018-11-01T13:52:40.275Z,9.53
2018-11-01T13:55:14.521Z,10.33
2018-11-01T13:57:46.951Z,12.57
2018-11-01T14:00:18.226Z,10.30
2018-11-01T14:02:49.955Z,11.13
2018-11-01T14:05:23.192Z,9.80
2018-11-01T14:07:56.546Z,10.63
2018-11-01T14:10:28.736Z,10.63
2018-11-01T14:13:00.459Z,12.47
2018-11-01T14:15:31.796Z,7.80
2018-11-01T14:18:05.573Z,9.73
2018-11-01T14:20:40.277Z,8.53
2018-11-01T14:23:12.127Z,11.63
2018-11-01T14:25:44.041Z,12.13
2018-11-01T14:28:15.313Z,10.03
2018-11-01T14:30:47.642Z,15.03
2018-11-01T14:33:18.997Z,11.73
2018-11-01T14:35:51.241Z,10.80
2018-11-01T14:38:22.968Z,8.77
2018-11-01T14:40:57.481Z,8.70
2018-11-01T14:43:29.818Z,11.60
2018-11-01T14:46:01.035Z,11.10
2018-11-01T14:48:32.739Z,10.67
2018-11-01T14:51:04.778Z,10.77
2018-11-01T14:53:37.377Z,10.43
2018-11-01T14:56:10.571Z,9.27
2018-11-01T14:58:42.504Z,9.07
2018-11-01T15:01:12.899Z,9.93
2018-11-01T15:03:46.924Z,13.07
2018-11-01T15:06:18.239Z,9.47
2018-11-01T15:08:50.410Z,10.57
2018-11-01T15:11:22.127Z,9.20
2018-11-01T15:13:54.342Z,10.20
2018-11-01T15:16:27.110Z,8.90
2018-11-01T15:18:59.379Z,8.07
2018-11-01T15:21:34.235Z,8.80
2018-11-01T15:24:08.969Z,10.17
2018-11-01T15:26:43.237Z,8.53
2018-11-01T15:29:15.983Z,8.20
2018-11-01T15:31:47.633Z,9.60
2018-11-01T15:34:19.273Z,13.80
2018-11-01T15:36:50.999Z,9.83
2018-11-01T15:39:22.594Z,8.40
2018-11-01T15:41:54.343Z,8.50
2018-11-01T15:44:27.446Z,9.10
2018-11-01T15:46:58.641Z,9.43
2018-11-01T15:49:30.321Z,9.43
2018-11-01T15:52:01.461Z,9.07
2018-11-01T15:54:32.835Z,8.27
2018-11-01T15:57:04.079Z,8.87
2018-11-01T15:59:35.340Z,7.93
2018-11-01T16:02:08.692Z,7.00
2018-11-01T16:04:41.430Z,7.17
2018-11-01T16:07:13.806Z,8.77
2018-11-01T16:09:45.695Z,9.10
2018-11-01T16:12:17.939Z,8.83
2018-11-01T16:14:53.340Z,8.70
2018-11-01T16:17:29.181Z,8.93
2018-11-01T16:20:02.763Z,9.30
2018-11-01T16:22:40.107Z,9.60
2018-11-01T16:25:13.835Z,10.60
2018-11-01T16:27:47.839Z,16.47
2018-11-01T16:30:21.080Z,9.13
2018-11-01T16:32:53.074Z,11.07
2018-11-01T16:35:25.472Z,10.53
2018-11-01T16:37:57.303Z,10.20
2018-11-01T16:40:29.162Z,10.90
2018-11-01T16:43:00.634Z,9.63
2018-11-01T16:45:32.305Z,12.07
2018-11-01T16:48:03.766Z,11.00
2018-11-01T16:50:35.928Z,11.83
2018-11-01T16:53:08.786Z,11.20
2018-11-01T16:55:41.040Z,11.57
2018-11-01T16:58:12.762Z,12.07
2018-11-01T17:00:44.768Z,11.23
2018-11-01T17:03:15.931Z,12.33
2018-11-01T17:05:51.566Z,13.10
2018-11-01T17:08:25.994Z,10.70
2018-11-01T17:10:59.722Z,11.77
2018-11-01T17:13:31.777Z,11.97
2018-11-01T17:16:03.516Z,11.50
2018-11-01T17:18:35.737Z,11.07
2018-11-01T17:21:08.226Z,11.03
2018-11-01T17:23:42.628Z,11.20
2018-11-01T17:26:15.906Z,12.00
2018-11-01T17:28:47.823Z,14.70
2018-11-01T17:31:20.212Z,14.97
2018-11-01T17:33:52.438Z,12.77
2018-11-01T17:36:24.201Z,13.03
2018-11-01T17:38:55.394Z,13.40
2018-11-01T17:41:26.718Z,12.17
2018-11-01T17:44:00.062Z,11.97
2018-11-01T17:46:31.493Z,12.53
2018-11-01T17:49:02.716Z,11.90
2018-11-01T17:51:34.500Z,12.73
2018-11-01T17:54:05.703Z,11.97
2018-11-01T17:56:37.325Z,11.27
2018-11-01T17:59:09.643Z,11.50
2018-11-01T18:01:41.057Z,11.70
2018-11-01T18:04:14.022Z,11.77
2018-11-01T18:06:46.452Z,11.10
2018-11-01T18:09:18.424Z,12.07
2018-11-01T18:11:49.684Z,10.80
2018-11-01T18:14:20.822Z,12.23
2018-11-01T18:16:52.922Z,17.60
2018-11-01T18:19:24.847Z,12.17
2018-11-01T18:21:56.521Z,12.30
2018-11-01T18:24:29.035Z,12.03
2018-11-01T18:27:00.554Z,11.27
2018-11-01T18:29:31.867Z,11.53
2018-11-01T18:32:04.680Z,13.43
2018-11-01T18:34:35.931Z,14.33
2018-11-01T18:37:07.673Z,13.10
2018-11-01T18:39:39.377Z,12.53
2018-11-01T18:42:10.894Z,9.73
2018-11-01T18:44:42.686Z,11.90
2018-11-01T18:47:14.762Z,11.33
2018-11-01T18:49:47.696Z,12.03
2018-11-01T18:52:19.728Z,11.43
2018-11-01T18:54:51.868Z,10.93
2018-11-01T18:57:24.186Z,13.03
2018-11-01T18:59:57.020Z,11.30
2018-11-01T19:02:30.462Z,10.50
2018-11-01T19:05:02.729Z,10.67
2018-11-01T19:07:35.273Z,10.93
2018-11-01T19:10:07.801Z,8.83
2018-11-01T19:12:43.530Z,10.97
2018-11-01T19:15:16.691Z,8.47
2018-11-01T19:17:49.804Z,8.80
2018-11-01T19:20:22.264Z,6.67
2018-11-01T19:22:54.337Z,5.50
2018-11-01T19:25:27.240Z,5.03
2018-11-01T19:28:01.804Z,5.80
2018-11-01T19:30:40.159Z,5.23
2018-11-01T19:33:19.182Z,5.00
2018-11-01T19:35:54.229Z,4.83
2018-11-01T19:38:25.821Z,4.53
2018-11-01T19:41:00.208Z,3.70
2018-11-01T19:43:34.338Z,3.60
2018-11-01T19:46:07.244Z,3.90
2018-11-01T19:48:40.966Z,4.90
2018-11-01T19:51:16.879Z,4.00
2018-11-01T19:53:49.642Z,4.10
2018-11-01T19:56:21.706Z,6.00
2018-11-01T19:58:58.550Z,3.67
2018-11-01T20:01:35.362Z,3.17
2018-11-01T20:04:15.467Z,4.70
2018-11-01T20:06:50.669Z,3.50
2018-11-01T20:09:29.028Z,3.97
2018-11-01T20:12:03.984Z,3.70
2018-11-01T20:14:43.593Z,3.90
2018-11-01T20:17:20.016Z,3.60
2018-11-01T20:19:55.719Z,3.40
2018-11-01T20:22:31.951Z,3.37
2018-11-01T20:25:04.169Z,4.37
2018-11-01T20:27:36.001Z,4.00
2018-11-01T20:30:10.087Z,3.27
2018-11-01T20:32:43.195Z,3.50
2018-11-01T20:35:17.023Z,3.17
2018-11-01T20:37:50.152Z,4.23
2018-11-01T20:40:22.087Z,3.33
2018-11-01T20:42:53.985Z,3.93
2018-11-01T20:45:27.135Z,4.70
2018-11-01T20:47:59.569Z,4.23
2018-11-01T20:50:33.780Z,4.40
2018-11-01T20:53:13.007Z,4.57
2018-11-01T20:55:44.592Z,4.87
2018-11-01T20:58:19.282Z,3.93
2018-11-01T21:00:52.707Z,3.90
2018-11-01T21:03:24.867Z,3.77
2018-11-01T21:05:56.355Z,4.30
2018-11-01T21:08:28.623Z,3.50
2018-11-01T21:11:01.448Z,4.40
2018-11-01T21:13:38.046Z,4.23
2018-11-01T21:16:11.830Z,3.40
2018-11-01T21:18:46.344Z,4.37
2018-11-01T21:21:22.765Z,3.93
2018-11-01T21:23:55.320Z,4.93
2018-11-01T21:26:27.602Z,3.93
2018-11-01T21:29:00.690Z,4.10
2018-11-01T21:31:34.339Z,3.33
2018-11-01T21:34:06.043Z,4.40
2018-11-01T21:36:38.384Z,6.60
2018-11-01T21:39:13.487Z,5.43
2018-11-01T21:41:47.118Z,4.23
2018-11-01T21:44:23.249Z,4.17
2018-11-01T21:46:55.536Z,5.50
2018-11-01T21:49:26.945Z,4.80
2018-11-01T21:51:58.966Z,5.27
2018-11-01T21:54:30.513Z,4.60
2018-11-01T21:57:03.737Z,3.63
2018-11-01T21:59:35.089Z,3.53
2018-11-01T22:02:06.892Z,7.73
2018-11-01T22:04:38.016Z,3.63
2018-11-01T22:07:08.995Z,3.70
2018-11-01T22:09:42.453Z,4.40
2018-11-01T22:12:15.416Z,2.73
2018-11-01T22:14:47.313Z,4.53
2018-11-01T22:17:20.097Z,3.53
2018-11-01T22:19:51.421Z,3.73
2018-11-01T22:22:25.628Z,2.93
2018-11-01T22:24:56.737Z,4.30
2018-11-01T22:27:33.285Z,3.93
2018-11-01T22:30:09.846Z,3.40
2018-11-01T22:32:46.367Z,3.03
2018-11-01T22:35:19.272Z,3.23
2018-11-01T22:37:54.063Z,3.47
2018-11-01T22:40:26.909Z,3.23
2018-11-01T22:43:02.094Z,2.97
2018-11-01T22:45:37.129Z,3.03
2018-11-01T22:48:10.990Z,2.83
2018-11-01T22:50:46.222Z,2.67
2018-11-01T22:53:19.617Z,2.60
2018-11-01T22:55:53.173Z,3.03
2018-11-01T22:58:28.604Z,2.40
2018-11-01T23:01:03.729Z,2.70
2018-11-01T23:03:36.702Z,2.10
2018-11-01T23:06:09.933Z,2.27
2018-11-01T23:08:42.662Z,2.63
2018-11-01T23:11:15.309Z,2.60
2018-11-01T23:13:56.420Z,2.33
2018-11-01T23:16:27.847Z,3.83
2018-11-01T23:19:01.717Z,2.93
2018-11-01T23:21:34.777Z,2.63
2018-11-01T23:24:06.401Z,1.67
2018-11-01T23:26:38.765Z,2.80
2018-11-01T23:29:10.509Z,2.23
2018-11-01T23:31:42.267Z,2.40
2018-11-01T23:34:14.765Z,2.43
2018-11-01T23:36:51.414Z,2.70
2018-11-01T23:39:28.949Z,2.30
2018-11-01T23:42:05.840Z,2.70
2018-11-01T23:44:41.863Z,2.30
2018-11-01T23:47:18.400Z,2.70
2018-11-01T23:49:57.799Z,2.60
2018-11-01T23:52:29.810Z,3.03
2018-11-01T23:55:01.558Z,2.13
2018-11-01T23:57:33.835Z,2.93
